createdAt,value
2018-02-21T00:01:55.879Z,25.87
2018-02-21T00:04:59.071Z,24.90
2018-02-21T00:08:02.421Z,22.67
2018-02-21T00:11:05.727Z,25.00
2018-02-21T00:14:08.927Z,22.70
2018-02-21T00:17:12.184Z,26.10
2018-02-21T00:20:15.420Z,27.53
2018-02-21T00:23:18.732Z,25.53
2018-02-21T00:26:22.014Z,25.80
2018-02-21T00:29:25.322Z,25.37
2018-02-21T00:32:28.523Z,24.87
2018-02-21T00:35:31.794Z,24.53
2018-02-21T00:38:35.110Z,24.33
2018-02-21T00:41:38.338Z,23.67
2018-02-21T00:44:41.605Z,23.43
2018-02-21T00:47:44.853Z,24.47
2018-02-21T00:50:48.166Z,22.80
2018-02-21T00:53:51.438Z,22.73
2018-02-21T00:56:54.702Z,23.97
2018-02-21T00:59:58.014Z,23.37
2018-02-21T01:03:01.245Z,22.80
2018-02-21T01:06:04.427Z,24.40
2018-02-21T01:09:07.575Z,22.10
2018-02-21T01:12:10.715Z,23.30
2018-02-21T01:15:13.921Z,23.20
2018-02-21T01:18:17.289Z,23.33
2018-02-21T01:21:20.570Z,22.63
2018-02-21T01:24:23.725Z,22.77
2018-02-21T01:27:26.946Z,23.53
2018-02-21T01:30:30.326Z,23.83
2018-02-21T01:33:33.466Z,23.13
2018-02-21T01:36:36.684Z,21.33
2018-02-21T01:39:39.842Z,23.13
2018-02-21T01:42:43.029Z,22.05
2018-02-21T01:45:46.390Z,20.07
2018-02-21T01:48:49.558Z,22.67
2018-02-21T01:51:52.785Z,24.37
2018-02-21T01:54:56.166Z,21.13
2018-02-21T01:57:59.417Z,24.10
2018-02-21T02:01:02.654Z,23.30
2018-02-21T02:04:05.918Z,24.23
2018-02-21T02:07:09.148Z,22.57
2018-02-21T02:10:12.393Z,23.67
2018-02-21T02:13:15.781Z,23.38
2018-02-21T02:16:19.109Z,23.90
2018-02-21T02:19:22.510Z,24.57
2018-02-21T02:22:25.696Z,23.23
2018-02-21T02:25:29.151Z,22.87
2018-02-21T02:28:32.398Z,24.40
2018-02-21T02:31:35.716Z,23.50
2018-02-21T02:34:38.978Z,24.33
2018-02-21T02:37:42.261Z,23.60
2018-02-21T02:40:45.631Z,24.63
2018-02-21T02:43:48.877Z,24.47
2018-02-21T02:46:52.137Z,26.53
2018-02-21T02:49:55.393Z,26.23
2018-02-21T02:52:58.620Z,27.27
2018-02-21T02:56:01.859Z,30.77
2018-02-21T02:59:05.147Z,28.27
2018-02-21T03:02:08.502Z,30.50
2018-02-21T03:05:11.697Z,30.40
2018-02-21T03:08:14.956Z,29.10
2018-02-21T03:11:18.250Z,32.30
2018-02-21T03:14:21.542Z,31.40
2018-02-21T03:17:24.851Z,30.17
2018-02-21T03:20:28.146Z,33.23
2018-02-21T03:23:31.437Z,30.37
2018-02-21T03:26:34.660Z,32.73
2018-02-21T03:29:37.931Z,29.15
2018-02-21T03:32:41.266Z,33.03
2018-02-21T03:35:44.574Z,29.60
2018-02-21T03:38:47.916Z,30.87
2018-02-21T03:41:51.226Z,30.13
2018-02-21T03:44:54.449Z,30.33
2018-02-21T03:47:57.749Z,32.30
2018-02-21T03:51:01.034Z,28.57
2018-02-21T03:54:04.578Z,32.53
2018-02-21T03:57:07.769Z,34.67
2018-02-21T04:00:10.944Z,34.30
2018-02-21T04:03:14.139Z,31.00
2018-02-21T04:06:17.429Z,33.75
2018-02-21T04:09:20.670Z,33.97
2018-02-21T04:12:23.884Z,33.67
2018-02-21T04:15:27.126Z,32.57
2018-02-21T04:18:30.415Z,31.10
2018-02-21T04:21:33.629Z,32.20
2018-02-21T04:24:36.882Z,32.07
2018-02-21T04:27:40.135Z,33.83
2018-02-21T04:30:43.382Z,33.33
2018-02-21T04:33:46.790Z,33.13
2018-02-21T04:36:50.046Z,33.00
2018-02-21T04:39:53.232Z,32.78
2018-02-21T04:42:56.485Z,34.63
2018-02-21T04:45:59.714Z,35.40
2018-02-21T04:49:02.965Z,34.60
2018-02-21T04:52:06.263Z,35.05
2018-02-21T04:55:09.524Z,34.93
2018-02-21T04:58:12.757Z,35.60
2018-02-21T05:01:15.983Z,35.37
2018-02-21T05:04:19.250Z,34.60
2018-02-21T05:07:22.543Z,35.43
2018-02-21T05:10:25.797Z,33.20
2018-02-21T05:13:29.052Z,37.10
2018-02-21T05:16:32.272Z,36.30
2018-02-21T05:19:35.453Z,33.93
2018-02-21T05:22:38.835Z,36.63
2018-02-21T05:25:42.092Z,36.60
2018-02-21T05:28:45.368Z,36.43
2018-02-21T05:31:48.725Z,35.03
2018-02-21T05:34:51.990Z,33.60
2018-02-21T05:37:55.360Z,36.90
2018-02-21T05:40:58.568Z,36.30
2018-02-21T05:44:01.963Z,34.43
2018-02-21T05:47:05.429Z,37.53
2018-02-21T05:50:08.706Z,37.20
2018-02-21T05:53:11.893Z,37.00
2018-02-21T05:56:15.196Z,38.17
2018-02-21T05:59:18.382Z,35.53
2018-02-21T06:02:21.852Z,36.33
2018-02-21T06:05:25.095Z,38.67
2018-02-21T06:08:28.281Z,37.40
2018-02-21T06:11:31.532Z,37.60
2018-02-21T06:14:35.301Z,37.80
2018-02-21T06:17:38.574Z,37.33
2018-02-21T06:20:41.878Z,38.27
2018-02-21T06:23:45.189Z,39.97
2018-02-21T06:26:48.574Z,41.23
2018-02-21T06:29:51.873Z,38.83
2018-02-21T06:32:55.108Z,39.10
2018-02-21T06:35:58.381Z,36.40
2018-02-21T06:39:01.685Z,36.67
2018-02-21T06:42:04.933Z,37.70
2018-02-21T06:45:08.168Z,39.13
2018-02-21T06:48:11.451Z,37.93
2018-02-21T06:51:14.750Z,38.17
2018-02-21T06:54:18.148Z,35.83
2018-02-21T06:57:21.460Z,38.27
2018-02-21T07:00:24.683Z,36.13
2018-02-21T07:03:27.947Z,40.20
2018-02-21T07:06:31.250Z,40.00
2018-02-21T07:09:34.570Z,34.97
2018-02-21T07:12:37.873Z,41.90
2018-02-21T07:15:41.320Z,41.87
2018-02-21T07:18:44.656Z,39.50
2018-02-21T07:21:48.030Z,38.87
2018-02-21T07:24:51.364Z,39.67
2018-02-21T07:27:54.650Z,39.23
2018-02-21T07:30:58.530Z,40.50
2018-02-21T07:34:01.761Z,38.57
2018-02-21T07:37:05.008Z,36.43
2018-02-21T07:40:08.197Z,40.03
2018-02-21T07:43:11.447Z,38.27
2018-02-21T07:46:14.732Z,41.80
2018-02-21T07:49:18.126Z,39.00
2018-02-21T07:52:21.394Z,40.30
2018-02-21T07:55:24.706Z,39.47
2018-02-21T07:58:27.925Z,38.23
2018-02-21T08:01:31.230Z,39.97
2018-02-21T08:04:34.535Z,39.53
2018-02-21T08:07:37.720Z,36.13
2018-02-21T08:10:40.984Z,39.63
2018-02-21T08:13:44.315Z,39.77
2018-02-21T08:16:47.669Z,40.17
2018-02-21T08:19:50.918Z,37.70
2018-02-21T08:22:54.092Z,39.53
2018-02-21T08:25:57.411Z,37.17
2018-02-21T08:29:00.698Z,39.73
2018-02-21T08:32:04.022Z,40.30
2018-02-21T08:35:07.220Z,40.70
2018-02-21T08:38:10.485Z,39.47
2018-02-21T08:41:13.795Z,41.30
2018-02-21T08:44:17.063Z,38.37
2018-02-21T08:47:20.633Z,38.87
2018-02-21T08:50:24.354Z,38.77
2018-02-21T08:53:27.648Z,38.40
2018-02-21T08:56:30.883Z,38.63
2018-02-21T08:59:34.088Z,39.50
2018-02-21T09:02:37.407Z,41.70
2018-02-21T09:05:40.674Z,37.73
2018-02-21T09:08:43.971Z,40.40
2018-02-21T09:11:47.317Z,37.47
2018-02-21T09:14:50.572Z,38.93
2018-02-21T09:17:53.875Z,38.73
2018-02-21T09:20:57.218Z,38.10
2018-02-21T09:24:00.488Z,42.57
2018-02-21T09:27:03.695Z,41.27
2018-02-21T09:30:06.852Z,40.63
2018-02-21T09:33:10.138Z,43.00
2018-02-21T09:36:13.466Z,43.40
2018-02-21T09:39:17.170Z,41.07
2018-02-21T09:42:20.497Z,38.43
2018-02-21T09:45:23.654Z,39.90
2018-02-21T09:48:26.936Z,38.83
2018-02-21T09:51:30.299Z,40.87
2018-02-21T09:54:33.490Z,38.73
2018-02-21T09:57:36.774Z,40.03
2018-02-21T10:00:40.030Z,37.10
2018-02-21T10:03:43.200Z,39.90
2018-02-21T10:06:46.645Z,37.93
2018-02-21T10:09:49.939Z,37.07
2018-02-21T10:12:53.160Z,38.60
2018-02-21T10:15:56.432Z,37.83
2018-02-21T10:18:59.608Z,37.03
2018-02-21T10:22:02.745Z,36.53
2018-02-21T10:25:06.035Z,36.40
2018-02-21T10:28:09.321Z,33.90
2018-02-21T10:31:12.532Z,35.20
2018-02-21T10:34:15.831Z,37.83
2018-02-21T10:37:20.357Z,36.70
2018-02-21T10:40:23.645Z,35.93
2018-02-21T10:43:26.844Z,34.27
2018-02-21T10:46:30.107Z,35.90
2018-02-21T10:49:33.397Z,34.50
2018-02-21T10:52:36.656Z,35.17
2018-02-21T10:55:39.839Z,34.00
2018-02-21T10:58:43.033Z,34.77
2018-02-21T11:01:46.217Z,34.93
2018-02-21T11:04:49.527Z,33.67
2018-02-21T11:07:52.738Z,34.20
2018-02-21T11:10:56.050Z,35.63
2018-02-21T11:13:59.314Z,35.70
2018-02-21T11:17:02.513Z,37.73
2018-02-21T11:20:05.722Z,35.23
2018-02-21T11:23:08.958Z,31.63
2018-02-21T11:26:12.248Z,33.57
2018-02-21T11:29:15.560Z,34.47
2018-02-21T11:32:18.884Z,33.73
2018-02-21T11:35:22.144Z,36.40
2018-02-21T11:38:25.435Z,37.07
2018-02-21T11:41:29.059Z,35.13
2018-02-21T11:44:32.322Z,33.87
2018-02-21T11:47:35.598Z,34.37
2018-02-21T11:50:38.838Z,34.43
2018-02-21T11:53:42.078Z,35.70
2018-02-21T11:56:45.344Z,33.03
2018-02-21T11:59:48.621Z,31.57
2018-02-21T12:02:51.764Z,32.60
2018-02-21T12:05:55.005Z,30.13
2018-02-21T12:08:58.224Z,32.20
2018-02-21T12:12:01.406Z,31.73
2018-02-21T12:15:04.703Z,32.27
2018-02-21T12:18:08.007Z,32.13
2018-02-21T12:21:11.309Z,29.70
2018-02-21T12:24:14.506Z,31.43
2018-02-21T12:27:17.861Z,30.83
2018-02-21T12:30:21.100Z,30.77
2018-02-21T12:33:24.326Z,31.47
2018-02-21T12:36:27.603Z,32.17
2018-02-21T12:39:35.093Z,30.63
2018-02-21T12:42:38.392Z,30.50
2018-02-21T12:45:41.678Z,30.77
2018-02-21T12:48:45.120Z,29.77
2018-02-21T12:51:48.369Z,29.80
2018-02-21T12:54:51.681Z,30.50
2018-02-21T12:57:54.980Z,29.00
2018-02-21T13:00:58.681Z,32.10
2018-02-21T13:04:01.972Z,29.37
2018-02-21T13:07:05.217Z,29.77
2018-02-21T13:10:08.472Z,28.43
2018-02-21T13:13:11.787Z,29.33
2018-02-21T13:16:15.057Z,29.13
2018-02-21T13:19:18.429Z,28.83
2018-02-21T13:22:21.593Z,28.53
2018-02-21T13:25:24.828Z,28.30
2018-02-21T13:28:28.038Z,29.13
2018-02-21T13:31:31.361Z,28.57
2018-02-21T13:34:34.661Z,27.60
2018-02-21T13:37:37.857Z,29.90
2018-02-21T13:40:41.289Z,29.53
2018-02-21T13:43:44.472Z,29.83
2018-02-21T13:46:48.971Z,29.17
2018-02-21T13:49:52.318Z,27.33
2018-02-21T13:52:55.562Z,28.37
2018-02-21T13:55:58.905Z,27.87
2018-02-21T13:59:02.179Z,28.93
2018-02-21T14:02:06.172Z,25.63
2018-02-21T14:05:09.407Z,25.33
2018-02-21T14:08:12.652Z,27.07
2018-02-21T14:11:15.921Z,27.50
2018-02-21T14:14:19.376Z,27.07
2018-02-21T14:17:22.654Z,26.63
2018-02-21T14:20:26.014Z,25.90
2018-02-21T14:23:29.184Z,26.00
2018-02-21T14:26:32.442Z,25.63
2018-02-21T14:29:35.781Z,24.10
2018-02-21T14:32:39.202Z,24.40
2018-02-21T14:35:42.446Z,24.63
2018-02-21T14:38:45.603Z,25.07
2018-02-21T14:41:48.940Z,25.73
2018-02-21T14:44:52.132Z,24.43
2018-02-21T14:47:55.295Z,25.20
2018-02-21T14:50:58.580Z,23.50
2018-02-21T14:54:01.906Z,24.23
2018-02-21T14:57:05.174Z,24.07
2018-02-21T15:00:08.510Z,23.93
2018-02-21T15:03:11.803Z,23.00
2018-02-21T15:06:15.006Z,22.20
2018-02-21T15:09:18.541Z,22.93
2018-02-21T15:12:21.884Z,22.40
2018-02-21T15:15:25.092Z,22.43
2018-02-21T15:18:28.449Z,23.60
2018-02-21T15:21:31.618Z,22.70
2018-02-21T15:24:34.986Z,22.83
2018-02-21T15:27:38.260Z,21.93
2018-02-21T15:30:42.165Z,20.47
2018-02-21T15:33:45.467Z,20.37
2018-02-21T15:36:48.940Z,20.17
2018-02-21T15:39:52.280Z,20.87
2018-02-21T15:42:55.648Z,20.97
2018-02-21T15:45:58.906Z,20.13
2018-02-21T15:49:02.078Z,20.03
2018-02-21T15:52:05.329Z,18.70
2018-02-21T15:55:08.646Z,17.73
2018-02-21T15:58:11.906Z,18.10
2018-02-21T16:01:15.149Z,16.60
2018-02-21T16:04:18.457Z,13.10
2018-02-21T16:07:21.818Z,10.00
2018-02-21T16:10:25.001Z,10.77
2018-02-21T16:13:28.350Z,9.43
2018-02-21T16:16:31.550Z,10.17
2018-02-21T16:19:34.751Z,10.23
2018-02-21T16:22:38.053Z,10.10
2018-02-21T16:25:41.364Z,9.87
2018-02-21T16:28:44.693Z,9.50
2018-02-21T16:31:48.018Z,10.60
2018-02-21T16:34:51.247Z,10.10
2018-02-21T16:37:54.599Z,10.43
2018-02-21T16:40:57.916Z,11.37
2018-02-21T16:44:01.167Z,11.73
2018-02-21T16:47:04.516Z,12.43
2018-02-21T16:50:07.892Z,11.50
2018-02-21T16:53:11.189Z,12.63
2018-02-21T16:56:14.444Z,12.87
2018-02-21T16:59:17.866Z,14.13
2018-02-21T17:02:21.146Z,15.20
2018-02-21T17:05:24.645Z,15.97
2018-02-21T17:08:27.981Z,16.20
2018-02-21T17:11:31.181Z,20.07
2018-02-21T17:14:34.413Z,20.63
2018-02-21T17:17:37.743Z,19.50
2018-02-21T17:20:41.028Z,20.07
2018-02-21T17:23:44.361Z,19.53
2018-02-21T17:26:47.678Z,19.53
2018-02-21T17:29:50.893Z,19.73
2018-02-21T17:32:54.207Z,19.93
2018-02-21T17:35:57.535Z,18.40
2018-02-21T17:39:00.969Z,19.33
2018-02-21T17:42:04.129Z,20.00
2018-02-21T17:45:07.422Z,19.77
2018-02-21T17:48:10.701Z,19.70
2018-02-21T17:51:13.986Z,19.93
2018-02-21T17:54:17.411Z,20.73
2018-02-21T17:57:20.742Z,20.47
2018-02-21T18:00:23.996Z,22.80
2018-02-21T18:03:27.186Z,25.13
2018-02-21T18:06:30.451Z,26.37
2018-02-21T18:09:33.724Z,26.03
2018-02-21T18:12:37.005Z,25.37
2018-02-21T18:15:40.405Z,22.80
2018-02-21T18:18:43.696Z,15.00
2018-02-21T18:21:50.506Z,13.50
2018-02-21T18:24:53.757Z,11.83
2018-02-21T18:27:57.059Z,12.63
2018-02-21T18:31:00.333Z,11.97
2018-02-21T18:34:03.560Z,13.37
2018-02-21T18:37:06.833Z,12.57
2018-02-21T18:40:10.218Z,12.43
2018-02-21T18:43:13.548Z,12.07
2018-02-21T18:46:16.902Z,13.70
2018-02-21T18:49:20.152Z,13.17
2018-02-21T18:52:23.459Z,12.17
2018-02-21T18:55:26.884Z,12.83
2018-02-21T18:58:30.140Z,13.07
2018-02-21T19:01:33.360Z,13.97
2018-02-21T19:04:36.633Z,13.83
2018-02-21T19:07:39.830Z,15.13
2018-02-21T19:10:43.130Z,14.70
2018-02-21T19:13:46.475Z,14.20
2018-02-21T19:16:49.821Z,15.07
2018-02-21T19:19:53.125Z,15.57
2018-02-21T19:22:56.310Z,14.83
2018-02-21T19:25:59.625Z,14.83
2018-02-21T19:29:02.814Z,17.20
2018-02-21T19:32:06.021Z,17.87
2018-02-21T19:35:09.226Z,18.50
2018-02-21T19:38:12.493Z,19.37
2018-02-21T19:41:15.686Z,19.03
2018-02-21T19:44:19.062Z,20.57
2018-02-21T19:47:22.355Z,20.83
2018-02-21T19:50:25.583Z,18.13
2018-02-21T19:53:28.874Z,19.73
2018-02-21T19:56:32.122Z,18.60
2018-02-21T19:59:35.412Z,18.03
2018-02-21T20:02:38.640Z,18.90
2018-02-21T20:05:41.938Z,20.93
2018-02-21T20:08:45.262Z,21.07
2018-02-21T20:11:48.632Z,22.43
2018-02-21T20:14:52.726Z,22.83
2018-02-21T20:17:55.962Z,22.97
2018-02-21T20:20:59.272Z,23.30
2018-02-21T20:24:02.504Z,21.83
2018-02-21T20:27:05.718Z,24.03
2018-02-21T20:30:08.897Z,23.73
2018-02-21T20:33:12.134Z,23.97
2018-02-21T20:36:15.698Z,22.83
2018-02-21T20:46:47.872Z,22.13
2018-02-21T20:49:51.173Z,23.33
2018-02-21T20:52:54.609Z,23.60
2018-02-21T20:55:57.809Z,23.13
2018-02-21T20:59:01.062Z,23.63
2018-02-21T21:02:04.465Z,22.30
2018-02-21T21:05:07.982Z,21.97
2018-02-21T21:08:11.319Z,23.80
2018-02-21T21:11:14.549Z,24.30
2018-02-21T21:14:17.845Z,22.20
2018-02-21T21:17:21.147Z,23.47
2018-02-21T21:20:24.435Z,24.17
2018-02-21T21:23:27.753Z,22.13
2018-02-21T21:26:32.745Z,23.90
2018-02-21T21:29:36.595Z,24.13
2018-02-21T21:32:39.827Z,22.33
2018-02-21T21:35:43.085Z,23.33
2018-02-21T21:38:46.556Z,23.07
2018-02-21T21:41:49.795Z,23.03
2018-02-21T21:44:53.064Z,21.93
2018-02-21T21:47:56.394Z,21.53
2018-02-21T21:50:59.675Z,22.93
2018-02-21T21:54:02.904Z,21.73
2018-02-21T21:57:06.181Z,22.80
2018-02-21T22:00:09.474Z,23.43
2018-02-21T22:03:12.719Z,22.90
2018-02-21T22:06:15.938Z,22.40
2018-02-21T22:09:19.366Z,22.53
2018-02-21T22:12:22.624Z,22.37
2018-02-21T22:15:25.962Z,21.73
2018-02-21T22:18:29.241Z,21.43
2018-02-21T22:21:32.542Z,20.50
2018-02-21T22:24:37.446Z,21.80
2018-02-21T22:27:41.270Z,22.87
2018-02-21T22:30:45.114Z,21.20
2018-02-21T22:33:48.467Z,21.30
2018-02-21T22:36:51.703Z,21.50
2018-02-21T22:39:54.985Z,21.60
2018-02-21T22:42:58.299Z,22.10
2018-02-21T22:46:01.790Z,21.07
2018-02-21T22:49:05.102Z,20.50
2018-02-21T22:52:08.353Z,20.43
2018-02-21T22:55:11.615Z,21.37
2018-02-21T22:58:14.998Z,21.10
2018-02-21T23:01:18.353Z,21.50
2018-02-21T23:04:21.587Z,20.93
2018-02-21T23:07:24.882Z,20.80
2018-02-21T23:10:28.139Z,20.30
2018-02-21T23:13:31.409Z,19.53
2018-02-21T23:16:34.657Z,19.87
2018-02-21T23:19:37.987Z,18.87
2018-02-21T23:22:41.289Z,19.33
2018-02-21T23:25:44.926Z,17.83
2018-02-21T23:28:48.353Z,20.27
2018-02-21T23:31:52.118Z,18.63
2018-02-21T23:34:55.569Z,19.63
2018-02-21T23:37:59.043Z,18.97
2018-02-21T23:41:02.285Z,19.43
2018-02-21T23:44:05.532Z,18.37
2018-02-21T23:47:08.846Z,18.73
2018-02-21T23:50:12.123Z,17.13
2018-02-21T23:53:15.375Z,15.97
2018-02-21T23:56:18.830Z,17.97
2018-02-21T23:59:22.062Z,17.70
